createdAt,value
2022-11-15T00:00:30.417Z,72.91
2022-11-15T00:05:52.217Z,73.12
2022-11-15T00:11:14.050Z,73.05
2022-11-15T00:16:35.709Z,73.24
2022-11-15T00:21:57.063Z,73.39
2022-11-15T00:27:18.733Z,73.31
2022-11-15T00:32:40.049Z,73.28
2022-11-15T00:38:02.442Z,73.09
2022-11-15T00:43:24.212Z,73.01
2022-11-15T00:48:45.607Z,73.00
2022-11-15T00:54:07.031Z,72.95
2022-11-15T00:59:28.645Z,73.12
2022-11-15T01:04:50.234Z,73.24
2022-11-15T01:10:12.395Z,73.24
2022-11-15T01:15:33.895Z,73.14
2022-11-15T01:20:55.446Z,73.08
2022-11-15T01:26:17.601Z,73.04
2022-11-15T01:31:39.223Z,73.11
2022-11-15T01:37:01.685Z,72.88
2022-11-15T01:42:23.160Z,72.85
2022-11-15T01:47:51.625Z,72.80
2022-11-15T01:53:13.819Z,72.75
2022-11-15T01:58:36.548Z,72.64
2022-11-15T02:04:07.931Z,72.75
2022-11-15T02:09:30.544Z,72.36
2022-11-15T02:14:55.757Z,72.52
2022-11-15T02:20:20.323Z,72.49
2022-11-15T02:26:00.659Z,72.48
2022-11-15T02:31:29.522Z,72.65
2022-11-15T02:37:03.077Z,72.76
2022-11-15T02:42:47.215Z,72.67
2022-11-15T02:48:10.886Z,72.53
2022-11-15T02:53:32.908Z,72.66
2022-11-15T02:59:26.582Z,72.51
2022-11-15T03:04:56.844Z,72.64
2022-11-15T03:10:26.758Z,72.92
2022-11-15T03:15:59.116Z,73.27
2022-11-15T03:21:23.163Z,73.15
2022-11-15T03:26:46.702Z,73.09
2022-11-15T03:32:15.471Z,73.03
2022-11-15T03:37:46.999Z,73.13
2022-11-15T03:43:36.344Z,72.71
2022-11-15T03:49:12.210Z,72.92
2022-11-15T03:54:33.694Z,72.88
2022-11-15T03:59:55.064Z,73.38
2022-11-15T04:05:16.846Z,73.24
2022-11-15T04:10:38.092Z,73.05
2022-11-15T04:15:59.402Z,73.42
2022-11-15T04:21:39.338Z,73.36
2022-11-15T04:27:01.243Z,73.06
2022-11-15T04:32:22.797Z,72.67
2022-11-15T04:37:49.099Z,72.60
2022-11-15T04:43:11.396Z,72.87
2022-11-15T04:48:33.060Z,73.07
2022-11-15T04:53:54.851Z,73.09
2022-11-15T04:59:16.267Z,73.23
2022-11-15T05:04:37.605Z,73.56
2022-11-15T05:09:59.014Z,73.07
2022-11-15T05:15:20.623Z,73.23
2022-11-15T05:20:42.193Z,72.88
2022-11-15T05:26:08.994Z,72.77
2022-11-15T05:31:31.082Z,72.79
2022-11-15T05:36:52.536Z,72.72
2022-11-15T05:42:16.278Z,72.33
2022-11-15T05:47:40.394Z,71.98
2022-11-15T05:53:05.307Z,71.75
2022-11-15T05:58:27.226Z,71.72
2022-11-15T06:03:48.859Z,72.13
2022-11-15T06:09:10.235Z,72.58
2022-11-15T06:14:31.619Z,72.80
2022-11-15T06:19:53.023Z,72.81
2022-11-15T06:25:14.835Z,72.83
2022-11-15T06:30:36.630Z,73.04
2022-11-15T06:36:05.862Z,72.82
2022-11-15T06:41:27.924Z,72.70
2022-11-15T06:46:50.759Z,72.73
2022-11-15T06:52:13.453Z,72.40
2022-11-15T06:57:36.592Z,72.10
2022-11-15T07:03:03.866Z,72.33
2022-11-15T07:08:29.909Z,71.98
2022-11-15T07:13:51.999Z,72.09
2022-11-15T07:19:15.836Z,71.76
2022-11-15T07:24:38.689Z,71.94
2022-11-15T07:30:00.939Z,72.44
2022-11-15T07:35:24.566Z,72.74
2022-11-15T07:40:48.792Z,72.91
2022-11-15T07:46:11.935Z,72.59
2022-11-15T07:51:34.901Z,72.69
2022-11-15T07:57:01.220Z,72.41
2022-11-15T08:02:30.589Z,72.27
2022-11-15T08:07:58.353Z,72.25
2022-11-15T08:13:22.700Z,72.28
2022-11-15T08:18:45.972Z,72.19
2022-11-15T08:24:12.520Z,72.29
2022-11-15T08:29:35.169Z,72.45
2022-11-15T08:34:58.023Z,72.26
2022-11-15T08:40:22.327Z,72.46
2022-11-15T08:45:44.231Z,72.56
2022-11-15T08:51:07.953Z,72.54
2022-11-15T08:56:31.499Z,72.38
2022-11-15T09:01:54.384Z,72.35
2022-11-15T09:07:19.315Z,72.68
2022-11-15T09:12:43.451Z,72.60
2022-11-15T09:18:05.651Z,72.82
2022-11-15T09:23:28.238Z,72.46
2022-11-15T09:28:52.557Z,72.60
2022-11-15T09:34:16.562Z,72.46
2022-11-15T09:39:39.517Z,72.42
2022-11-15T09:45:15.194Z,72.33
2022-11-15T09:50:48.259Z,71.88
2022-11-15T09:56:04.936Z,71.81
2022-11-15T10:01:20.102Z,71.81
2022-11-15T10:06:27.245Z,72.37
2022-11-15T10:11:38.344Z,72.07
2022-11-15T10:17:04.369Z,71.62
2022-11-15T10:22:29.188Z,71.25
2022-11-15T10:27:32.502Z,70.62
2022-11-15T10:32:37.880Z,69.72
2022-11-15T10:37:41.932Z,69.16
2022-11-15T10:42:46.639Z,68.26
2022-11-15T10:47:50.485Z,68.04
2022-11-15T10:52:55.216Z,68.06
2022-11-15T10:58:24.227Z,67.37
2022-11-15T11:03:34.096Z,67.63
2022-11-15T11:08:42.179Z,67.62
2022-11-15T11:13:46.177Z,67.72
2022-11-15T11:19:05.236Z,67.75
2022-11-15T11:24:27.550Z,67.47
2022-11-15T11:29:50.723Z,67.11
2022-11-15T11:35:09.893Z,66.41
2022-11-15T11:40:39.071Z,65.89
2022-11-15T11:46:10.940Z,65.79
2022-11-15T11:51:22.194Z,64.96
2022-11-15T11:56:36.065Z,64.54
2022-11-15T12:01:45.410Z,64.08
2022-11-15T12:07:00.425Z,64.01
2022-11-15T12:12:16.046Z,63.73
2022-11-15T12:17:26.875Z,63.35
2022-11-15T12:22:57.009Z,63.26
2022-11-15T12:28:20.148Z,63.32
2022-11-15T12:33:32.879Z,63.21
2022-11-15T12:38:56.795Z,62.95
2022-11-15T12:44:03.341Z,63.21
2022-11-15T12:49:29.148Z,63.01
2022-11-15T12:54:40.990Z,63.11
2022-11-15T13:00:05.095Z,63.16
2022-11-15T13:05:16.518Z,63.62
2022-11-15T13:10:31.215Z,63.49
2022-11-15T13:15:42.750Z,63.80
2022-11-15T13:20:46.611Z,63.78
2022-11-15T13:26:13.625Z,63.99
2022-11-15T13:31:35.829Z,63.89
2022-11-15T13:36:38.791Z,64.13
2022-11-15T13:41:50.474Z,64.51
2022-11-15T13:47:30.514Z,64.40
2022-11-15T13:52:38.190Z,64.54
2022-11-15T13:57:46.840Z,64.92
2022-11-15T14:02:49.806Z,65.24
2022-11-15T14:07:58.332Z,65.72
2022-11-15T14:13:02.553Z,65.91
2022-11-15T14:18:07.050Z,66.04
2022-11-15T14:23:29.475Z,65.79
2022-11-15T14:28:38.414Z,65.49
2022-11-15T14:33:42.466Z,65.87
2022-11-15T14:38:46.008Z,66.33
2022-11-15T14:43:50.042Z,65.98
2022-11-15T14:48:53.018Z,66.01
2022-11-15T14:53:56.480Z,65.67
2022-11-15T14:58:59.629Z,65.63
2022-11-15T15:04:02.781Z,65.72
2022-11-15T15:09:06.343Z,67.87
2022-11-15T15:14:09.629Z,67.60
2022-11-15T15:19:12.786Z,65.49
2022-11-15T15:24:16.137Z,65.49
2022-11-15T15:29:19.107Z,65.37
2022-11-15T15:34:22.118Z,65.32
2022-11-15T15:39:25.184Z,65.02
2022-11-15T15:44:28.139Z,65.58
2022-11-15T15:49:31.090Z,65.35
2022-11-15T15:54:34.092Z,65.64
2022-11-15T15:59:37.100Z,65.58
2022-11-15T16:04:40.758Z,66.25
2022-11-15T16:10:02.301Z,66.06
2022-11-15T16:15:05.643Z,65.87
2022-11-15T16:20:23.673Z,65.92
2022-11-15T16:25:26.771Z,66.30
2022-11-15T16:30:29.777Z,65.75
2022-11-15T16:35:32.982Z,65.39
2022-11-15T16:40:36.300Z,65.42
2022-11-15T16:45:39.373Z,65.71
2022-11-15T16:50:43.145Z,65.68
2022-11-15T16:55:46.161Z,65.79
2022-11-15T17:00:57.200Z,66.16
2022-11-15T17:06:00.577Z,66.57
2022-11-15T17:11:10.543Z,66.95
2022-11-15T17:16:15.445Z,67.10
2022-11-15T17:21:21.085Z,66.65
2022-11-15T17:26:30.241Z,66.66
2022-11-15T17:31:37.018Z,66.49
2022-11-15T17:36:39.967Z,66.55
2022-11-15T17:41:42.955Z,66.64
2022-11-15T17:46:45.970Z,66.87
2022-11-15T17:51:50.081Z,66.62
2022-11-15T17:56:53.270Z,67.32
2022-11-15T18:01:56.281Z,67.40
2022-11-15T18:06:59.348Z,67.40
2022-11-15T18:12:02.371Z,66.90
2022-11-15T18:17:05.434Z,66.95
2022-11-15T18:22:10.393Z,66.82
2022-11-15T18:27:13.361Z,66.64
2022-11-15T18:32:17.875Z,66.34
2022-11-15T18:37:20.951Z,66.88
2022-11-15T18:42:24.090Z,66.89
2022-11-15T18:47:27.015Z,67.33
2022-11-15T18:52:29.943Z,67.21
2022-11-15T18:57:33.105Z,67.42
2022-11-15T19:02:36.024Z,67.68
2022-11-15T19:07:39.202Z,68.07
2022-11-15T19:12:42.361Z,68.10
2022-11-15T19:17:45.572Z,67.84
2022-11-15T19:22:48.515Z,67.37
2022-11-15T19:27:51.442Z,67.42
2022-11-15T19:32:54.437Z,67.87
2022-11-15T19:37:57.355Z,67.95
2022-11-15T19:43:00.290Z,67.81
2022-11-15T19:48:03.479Z,67.82
2022-11-15T19:53:06.534Z,67.83
2022-11-15T19:58:09.475Z,68.37
2022-11-15T20:03:12.989Z,68.36
2022-11-15T20:08:15.947Z,68.18
2022-11-15T20:13:18.926Z,68.26
2022-11-15T20:18:22.786Z,68.72
2022-11-15T20:23:28.950Z,68.78
2022-11-15T20:28:32.366Z,68.73
2022-11-15T20:33:35.643Z,69.09
2022-11-15T20:38:40.109Z,69.28
2022-11-15T20:43:44.045Z,69.75
2022-11-15T20:48:47.188Z,69.62
2022-11-15T20:53:50.534Z,69.65
2022-11-15T20:58:54.937Z,69.73
2022-11-15T21:03:58.423Z,69.87
2022-11-15T21:09:20.011Z,69.85
2022-11-15T21:14:23.272Z,70.12
2022-11-15T21:19:31.404Z,70.47
2022-11-15T21:24:38.883Z,70.63
2022-11-15T21:29:45.712Z,70.59
2022-11-15T21:34:48.685Z,70.60
2022-11-15T21:39:51.645Z,70.76
2022-11-15T21:44:54.574Z,70.80
2022-11-15T21:49:57.536Z,70.63
2022-11-15T21:55:00.485Z,70.52
2022-11-15T22:00:23.745Z,70.50
2022-11-15T22:05:26.714Z,70.66
2022-11-15T22:10:30.737Z,70.60
2022-11-15T22:15:33.752Z,70.72
2022-11-15T22:20:44.598Z,70.40
2022-11-15T22:25:48.300Z,70.41
2022-11-15T22:30:53.152Z,70.50
2022-11-15T22:35:56.755Z,70.64
2022-11-15T22:41:00.389Z,70.44
2022-11-15T22:46:04.589Z,71.01
2022-11-15T22:51:08.545Z,70.35
2022-11-15T22:56:14.116Z,70.92
2022-11-15T23:01:24.747Z,70.81
2022-11-15T23:06:27.716Z,70.35
2022-11-15T23:11:49.356Z,70.02
2022-11-15T23:16:52.391Z,70.10
2022-11-15T23:22:14.080Z,70.63
2022-11-15T23:27:20.182Z,70.96
2022-11-15T23:32:41.824Z,70.96
2022-11-15T23:37:44.829Z,71.09
2022-11-15T23:42:47.871Z,71.32
2022-11-15T23:47:50.914Z,71.55
2022-11-15T23:52:53.896Z,71.31
2022-11-15T23:57:57.488Z,71.93
